sensor_id;sensor_type;location;lat;lon;timestamp;P1;durP1;ratioP1;P2;durP2;ratioP2
36383;SDS011;22418;51.210;6.976;2023-02-01T00:00:33;26.63;;;9.45;;
36383;SDS011;22418;51.210;6.976;2023-02-01T00:03:04;25.87;;;9.30;;
36383;SDS011;22418;51.210;6.976;2023-02-01T00:05:35;29.50;;;10.18;;
36383;SDS011;22418;51.210;6.976;2023-02-01T00:08:06;26.40;;;9.37;;
36383;SDS011;22418;51.210;6.976;2023-02-01T00:10:36;31.10;;;9.93;;
36383;SDS011;22418;51.210;6.976;2023-02-01T00:13:07;25.57;;;9.27;;
36383;SDS011;22418;51.210;6.976;2023-02-01T00:15:37;33.60;;;9.20;;
36383;SDS011;22418;51.210;6.976;2023-02-01T00:18:08;30.43;;;9.37;;
36383;SDS011;22418;51.210;6.976;2023-02-01T00:20:38;28.90;;;9.20;;
36383;SDS011;22418;51.210;6.976;2023-02-01T00:23:09;32.70;;;9.37;;
36383;SDS011;22418;51.210;6.976;2023-02-01T00:25:39;35.27;;;9.43;;
36383;SDS011;22418;51.210;6.976;2023-02-01T00:28:10;23.57;;;9.40;;
36383;SDS011;22418;51.210;6.976;2023-02-01T00:30:42;35.60;;;11.48;;
36383;SDS011;22418;51.210;6.976;2023-02-01T00:33:13;37.27;;;11.67;;
36383;SDS011;22418;51.210;6.976;2023-02-01T00:35:43;31.57;;;11.93;;
36383;SDS011;22418;51.210;6.976;2023-02-01T00:38:14;36.43;;;11.67;;
36383;SDS011;22418;51.210;6.976;2023-02-01T00:40:44;33.00;;;11.00;;
36383;SDS011;22418;51.210;6.976;2023-02-01T00:43:15;40.17;;;11.73;;
36383;SDS011;22418;51.210;6.976;2023-02-01T00:45:46;30.23;;;11.30;;
36383;SDS011;22418;51.210;6.976;2023-02-01T00:48:16;32.15;;;11.27;;
36383;SDS011;22418;51.210;6.976;2023-02-01T00:50:47;37.63;;;11.80;;
36383;SDS011;22418;51.210;6.976;2023-02-01T00:53:18;29.97;;;11.43;;
36383;SDS011;22418;51.210;6.976;2023-02-01T00:55:48;42.03;;;11.00;;
36383;SDS011;22418;51.210;6.976;2023-02-01T00:58:19;29.87;;;10.90;;
36383;SDS011;22418;51.210;6.976;2023-02-01T01:00:49;30.83;;;10.43;;
36383;SDS011;22418;51.210;6.976;2023-02-01T01:03:20;31.57;;;10.83;;
36383;SDS011;22418;51.210;6.976;2023-02-01T01:05:50;35.53;;;10.90;;
36383;SDS011;22418;51.210;6.976;2023-02-01T01:08:21;36.53;;;10.47;;
36383;SDS011;22418;51.210;6.976;2023-02-01T01:10:51;27.23;;;10.07;;
36383;SDS011;22418;51.210;6.976;2023-02-01T01:13:23;39.10;;;9.90;;
36383;SDS011;22418;51.210;6.976;2023-02-01T01:15:53;31.90;;;8.95;;
36383;SDS011;22418;51.210;6.976;2023-02-01T01:18:24;43.80;;;10.30;;
36383;SDS011;22418;51.210;6.976;2023-02-01T01:20:54;29.50;;;10.30;;
36383;SDS011;22418;51.210;6.976;2023-02-01T01:23:25;31.27;;;9.53;;
36383;SDS011;22418;51.210;6.976;2023-02-01T01:25:56;38.28;;;9.05;;
36383;SDS011;22418;51.210;6.976;2023-02-01T01:28:26;34.43;;;8.53;;
36383;SDS011;22418;51.210;6.976;2023-02-01T01:30:57;37.80;;;8.20;;
36383;SDS011;22418;51.210;6.976;2023-02-01T01:33:27;26.03;;;7.53;;
36383;SDS011;22418;51.210;6.976;2023-02-01T01:36:01;35.20;;;7.80;;
36383;SDS011;22418;51.210;6.976;2023-02-01T01:38:31;30.83;;;8.37;;
36383;SDS011;22418;51.210;6.976;2023-02-01T01:41:02;27.37;;;7.07;;
36383;SDS011;22418;51.210;6.976;2023-02-01T01:46:26;30.98;;;7.30;;
36383;SDS011;22418;51.210;6.976;2023-02-01T01:51:42;30.17;;;6.65;;
36383;SDS011;22418;51.210;6.976;2023-02-01T01:54:18;30.77;;;6.20;;
36383;SDS011;22418;51.210;6.976;2023-02-01T01:57:14;27.40;;;6.55;;
36383;SDS011;22418;51.210;6.976;2023-02-01T01:59:50;19.52;;;5.20;;
36383;SDS011;22418;51.210;6.976;2023-02-01T02:02:29;23.63;;;5.25;;
36383;SDS011;22418;51.210;6.976;2023-02-01T02:05:00;28.00;;;5.17;;
36383;SDS011;22418;51.210;6.976;2023-02-01T02:07:32;28.83;;;5.07;;
36383;SDS011;22418;51.210;6.976;2023-02-01T02:10:10;22.80;;;4.50;;
36383;SDS011;22418;51.210;6.976;2023-02-01T02:12:44;31.27;;;5.13;;
36383;SDS011;22418;51.210;6.976;2023-02-01T02:15:17;27.48;;;5.13;;
36383;SDS011;22418;51.210;6.976;2023-02-01T02:18:09;20.70;;;4.73;;
36383;SDS011;22418;51.210;6.976;2023-02-01T02:38:02;31.17;;;4.28;;
36383;SDS011;22418;51.210;6.976;2023-02-01T02:40:45;21.50;;;4.97;;
36383;SDS011;22418;51.210;6.976;2023-02-01T02:43:24;30.75;;;4.72;;
36383;SDS011;22418;51.210;6.976;2023-02-01T02:46:37;26.17;;;5.13;;
36383;SDS011;22418;51.210;6.976;2023-02-01T02:49:35;25.63;;;4.63;;
36383;SDS011;22418;51.210;6.976;2023-02-01T02:52:12;27.95;;;4.45;;
36383;SDS011;22418;51.210;6.976;2023-02-01T02:55:05;36.72;;;4.65;;
36383;SDS011;22418;51.210;6.976;2023-02-01T02:57:39;25.27;;;4.45;;
36383;SDS011;22418;51.210;6.976;2023-02-01T03:03:20;30.33;;;3.97;;
36383;SDS011;22418;51.210;6.976;2023-02-01T03:06:13;25.73;;;4.30;;
36383;SDS011;22418;51.210;6.976;2023-02-01T03:08:47;30.33;;;4.82;;
36383;SDS011;22418;51.210;6.976;2023-02-01T03:11:17;26.50;;;4.20;;
36383;SDS011;22418;51.210;6.976;2023-02-01T03:19:42;24.48;;;3.78;;
36383;SDS011;22418;51.210;6.976;2023-02-01T03:22:03;26.67;;;4.68;;
36383;SDS011;22418;51.210;6.976;2023-02-01T03:24:41;23.00;;;5.30;;
36383;SDS011;22418;51.210;6.976;2023-02-01T03:27:33;20.40;;;4.57;;
36383;SDS011;22418;51.210;6.976;2023-02-01T03:30:19;22.77;;;4.80;;
36383;SDS011;22418;51.210;6.976;2023-02-01T03:38:29;22.30;;;4.30;;
36383;SDS011;22418;51.210;6.976;2023-02-01T03:41:09;24.35;;;4.45;;
36383;SDS011;22418;51.210;6.976;2023-02-01T03:43:43;21.88;;;4.65;;
36383;SDS011;22418;51.210;6.976;2023-02-01T03:46:18;29.70;;;5.22;;
36383;SDS011;22418;51.210;6.976;2023-02-01T03:48:54;29.40;;;5.18;;
36383;SDS011;22418;51.210;6.976;2023-02-01T03:51:25;27.88;;;5.47;;
36383;SDS011;22418;51.210;6.976;2023-02-01T03:53:56;27.98;;;4.95;;
36383;SDS011;22418;51.210;6.976;2023-02-01T03:56:28;34.85;;;5.15;;
36383;SDS011;22418;51.210;6.976;2023-02-01T03:59:00;29.90;;;5.03;;
36383;SDS011;22418;51.210;6.976;2023-02-01T04:01:31;28.73;;;4.57;;
36383;SDS011;22418;51.210;6.976;2023-02-01T04:04:02;25.87;;;4.77;;
36383;SDS011;22418;51.210;6.976;2023-02-01T04:06:32;21.08;;;5.10;;
36383;SDS011;22418;51.210;6.976;2023-02-01T04:09:03;32.43;;;4.80;;
36383;SDS011;22418;51.210;6.976;2023-02-01T04:11:33;32.40;;;5.43;;
36383;SDS011;22418;51.210;6.976;2023-02-01T04:14:04;25.10;;;4.83;;
36383;SDS011;22418;51.210;6.976;2023-02-01T04:16:35;22.57;;;4.53;;
36383;SDS011;22418;51.210;6.976;2023-02-01T04:19:05;33.73;;;4.97;;
36383;SDS011;22418;51.210;6.976;2023-02-01T04:21:36;29.13;;;4.73;;
36383;SDS011;22418;51.210;6.976;2023-02-01T04:24:07;27.95;;;4.57;;
36383;SDS011;22418;51.210;6.976;2023-02-01T04:29:09;26.08;;;3.95;;
36383;SDS011;22418;51.210;6.976;2023-02-01T04:31:40;24.90;;;4.18;;
36383;SDS011;22418;51.210;6.976;2023-02-01T04:34:10;30.35;;;6.22;;
36383;SDS011;22418;51.210;6.976;2023-02-01T04:36:41;30.43;;;4.90;;
36383;SDS011;22418;51.210;6.976;2023-02-01T04:39:12;42.30;;;5.27;;
36383;SDS011;22418;51.210;6.976;2023-02-01T04:41:42;28.40;;;4.80;;
36383;SDS011;22418;51.210;6.976;2023-02-01T04:44:14;39.47;;;4.93;;
36383;SDS011;22418;51.210;6.976;2023-02-01T04:46:46;29.90;;;4.93;;
36383;SDS011;22418;51.210;6.976;2023-02-01T04:49:17;29.25;;;4.32;;
36383;SDS011;22418;51.210;6.976;2023-02-01T04:51:48;33.87;;;5.53;;
36383;SDS011;22418;51.210;6.976;2023-02-01T04:54:18;28.97;;;5.23;;
36383;SDS011;22418;51.210;6.976;2023-02-01T04:56:49;30.20;;;4.60;;
36383;SDS011;22418;51.210;6.976;2023-02-01T04:59:19;26.27;;;4.57;;
36383;SDS011;22418;51.210;6.976;2023-02-01T05:01:50;31.17;;;5.10;;
36383;SDS011;22418;51.210;6.976;2023-02-01T05:04:20;28.60;;;5.07;;
36383;SDS011;22418;51.210;6.976;2023-02-01T05:06:51;29.07;;;4.57;;
36383;SDS011;22418;51.210;6.976;2023-02-01T05:09:21;33.53;;;4.90;;
36383;SDS011;22418;51.210;6.976;2023-02-01T05:11:52;26.60;;;4.80;;
36383;SDS011;22418;51.210;6.976;2023-02-01T05:14:41;28.33;;;5.18;;
36383;SDS011;22418;51.210;6.976;2023-02-01T05:17:11;29.63;;;5.07;;
36383;SDS011;22418;51.210;6.976;2023-02-01T05:19:42;35.10;;;4.93;;
36383;SDS011;22418;51.210;6.976;2023-02-01T05:22:12;22.30;;;4.67;;
36383;SDS011;22418;51.210;6.976;2023-02-01T05:24:43;28.93;;;5.13;;
36383;SDS011;22418;51.210;6.976;2023-02-01T05:27:14;31.13;;;4.78;;
36383;SDS011;22418;51.210;6.976;2023-02-01T05:29:44;30.37;;;5.20;;
36383;SDS011;22418;51.210;6.976;2023-02-01T05:32:15;38.13;;;4.93;;
36383;SDS011;22418;51.210;6.976;2023-02-01T05:34:45;35.23;;;6.60;;
36383;SDS011;22418;51.210;6.976;2023-02-01T05:37:16;34.30;;;4.97;;
36383;SDS011;22418;51.210;6.976;2023-02-01T05:39:46;35.80;;;5.77;;
36383;SDS011;22418;51.210;6.976;2023-02-01T05:42:17;27.73;;;5.57;;
36383;SDS011;22418;51.210;6.976;2023-02-01T05:44:47;32.40;;;5.60;;
36383;SDS011;22418;51.210;6.976;2023-02-01T05:47:18;30.33;;;4.87;;
36383;SDS011;22418;51.210;6.976;2023-02-01T05:49:50;40.22;;;6.47;;
36383;SDS011;22418;51.210;6.976;2023-02-01T05:52:21;33.80;;;5.40;;
36383;SDS011;22418;51.210;6.976;2023-02-01T05:54:51;35.07;;;5.80;;
36383;SDS011;22418;51.210;6.976;2023-02-01T05:57:22;31.08;;;5.15;;
36383;SDS011;22418;51.210;6.976;2023-02-01T05:59:53;37.13;;;4.97;;
36383;SDS011;22418;51.210;6.976;2023-02-01T06:02:23;30.07;;;5.47;;
36383;SDS011;22418;51.210;6.976;2023-02-01T06:04:54;34.07;;;6.00;;
36383;SDS011;22418;51.210;6.976;2023-02-01T06:07:24;31.67;;;5.17;;
36383;SDS011;22418;51.210;6.976;2023-02-01T06:09:55;30.93;;;5.10;;
36383;SDS011;22418;51.210;6.976;2023-02-01T06:12:26;39.23;;;6.20;;
36383;SDS011;22418;51.210;6.976;2023-02-01T06:14:58;35.67;;;6.28;;
36383;SDS011;22418;51.210;6.976;2023-02-01T06:17:29;35.95;;;5.75;;
36383;SDS011;22418;51.210;6.976;2023-02-01T06:19:59;39.93;;;5.27;;
36383;SDS011;22418;51.210;6.976;2023-02-01T06:22:30;36.20;;;5.53;;
36383;SDS011;22418;51.210;6.976;2023-02-01T06:25:00;34.30;;;4.97;;
36383;SDS011;22418;51.210;6.976;2023-02-01T06:27:31;27.60;;;4.93;;
36383;SDS011;22418;51.210;6.976;2023-02-01T06:30:03;31.15;;;5.35;;
36383;SDS011;22418;51.210;6.976;2023-02-01T06:32:35;35.55;;;5.22;;
36383;SDS011;22418;51.210;6.976;2023-02-01T06:35:06;27.83;;;4.50;;
36383;SDS011;22418;51.210;6.976;2023-02-01T06:37:38;37.13;;;6.05;;
36383;SDS011;22418;51.210;6.976;2023-02-01T06:40:08;34.27;;;5.53;;
36383;SDS011;22418;51.210;6.976;2023-02-01T06:42:39;36.72;;;6.55;;
36383;SDS011;22418;51.210;6.976;2023-02-01T06:45:10;34.27;;;5.60;;
36383;SDS011;22418;51.210;6.976;2023-02-01T06:47:41;37.30;;;5.73;;
36383;SDS011;22418;51.210;6.976;2023-02-01T06:50:12;33.90;;;5.55;;
36383;SDS011;22418;51.210;6.976;2023-02-01T06:52:42;29.27;;;4.17;;
36383;SDS011;22418;51.210;6.976;2023-02-01T06:55:13;28.80;;;5.27;;
36383;SDS011;22418;51.210;6.976;2023-02-01T06:57:43;39.07;;;6.00;;
36383;SDS011;22418;51.210;6.976;2023-02-01T07:00:14;25.97;;;4.90;;
36383;SDS011;22418;51.210;6.976;2023-02-01T07:02:45;28.13;;;4.50;;
36383;SDS011;22418;51.210;6.976;2023-02-01T07:05:15;34.10;;;5.10;;
36383;SDS011;22418;51.210;6.976;2023-02-01T07:07:47;25.40;;;4.78;;
36383;SDS011;22418;51.210;6.976;2023-02-01T07:10:17;28.17;;;4.70;;
36383;SDS011;22418;51.210;6.976;2023-02-01T07:12:48;34.43;;;5.87;;
36383;SDS011;22418;51.210;6.976;2023-02-01T07:15:18;29.83;;;6.93;;
36383;SDS011;22418;51.210;6.976;2023-02-01T07:17:49;38.40;;;5.20;;
36383;SDS011;22418;51.210;6.976;2023-02-01T07:20:19;29.83;;;5.10;;
36383;SDS011;22418;51.210;6.976;2023-02-01T07:22:54;28.57;;;4.57;;
36383;SDS011;22418;51.210;6.976;2023-02-01T07:25:26;34.25;;;5.03;;
36383;SDS011;22418;51.210;6.976;2023-02-01T07:27:57;34.93;;;4.83;;
36383;SDS011;22418;51.210;6.976;2023-02-01T07:30:27;35.63;;;5.78;;
36383;SDS011;22418;51.210;6.976;2023-02-01T07:32:58;27.30;;;5.20;;
36383;SDS011;22418;51.210;6.976;2023-02-01T07:35:30;35.97;;;5.45;;
36383;SDS011;22418;51.210;6.976;2023-02-01T07:38:01;33.20;;;4.80;;
36383;SDS011;22418;51.210;6.976;2023-02-01T07:40:32;34.37;;;6.00;;
36383;SDS011;22418;51.210;6.976;2023-02-01T07:43:02;40.60;;;5.45;;
36383;SDS011;22418;51.210;6.976;2023-02-01T07:45:36;29.60;;;5.75;;
36383;SDS011;22418;51.210;6.976;2023-02-01T07:48:06;27.73;;;4.57;;
36383;SDS011;22418;51.210;6.976;2023-02-01T07:50:37;27.50;;;4.93;;
36383;SDS011;22418;51.210;6.976;2023-02-01T07:53:08;32.83;;;6.63;;
36383;SDS011;22418;51.210;6.976;2023-02-01T07:55:38;31.13;;;4.83;;
36383;SDS011;22418;51.210;6.976;2023-02-01T07:58:09;34.40;;;5.95;;
36383;SDS011;22418;51.210;6.976;2023-02-01T08:00:40;36.63;;;5.47;;
36383;SDS011;22418;51.210;6.976;2023-02-01T08:03:29;31.38;;;5.38;;
36383;SDS011;22418;51.210;6.976;2023-02-01T08:05:59;35.20;;;6.63;;
36383;SDS011;22418;51.210;6.976;2023-02-01T08:08:30;31.00;;;5.07;;
36383;SDS011;22418;51.210;6.976;2023-02-01T08:11:01;30.30;;;5.17;;
36383;SDS011;22418;51.210;6.976;2023-02-01T08:13:34;34.45;;;5.22;;
36383;SDS011;22418;51.210;6.976;2023-02-01T08:16:06;31.05;;;5.20;;
36383;SDS011;22418;51.210;6.976;2023-02-01T08:18:38;34.50;;;6.25;;
36383;SDS011;22418;51.210;6.976;2023-02-01T08:23:43;26.33;;;4.63;;
36383;SDS011;22418;51.210;6.976;2023-02-01T08:26:17;29.10;;;4.88;;
36383;SDS011;22418;51.210;6.976;2023-02-01T08:28:54;32.38;;;5.28;;
36383;SDS011;22418;51.210;6.976;2023-02-01T08:31:27;35.80;;;4.72;;
36383;SDS011;22418;51.210;6.976;2023-02-01T08:33:59;31.33;;;5.35;;
36383;SDS011;22418;51.210;6.976;2023-02-01T08:36:32;38.22;;;6.13;;
36383;SDS011;22418;51.210;6.976;2023-02-01T08:39:02;38.15;;;5.57;;
36383;SDS011;22418;51.210;6.976;2023-02-01T08:41:35;34.05;;;5.97;;
36383;SDS011;22418;51.210;6.976;2023-02-01T08:44:06;27.27;;;5.40;;
36383;SDS011;22418;51.210;6.976;2023-02-01T08:46:36;38.33;;;5.07;;
36383;SDS011;22418;51.210;6.976;2023-02-01T08:49:07;38.30;;;5.77;;
36383;SDS011;22418;51.210;6.976;2023-02-01T08:51:37;30.63;;;4.53;;
36383;SDS011;22418;51.210;6.976;2023-02-01T08:54:08;29.83;;;4.77;;
36383;SDS011;22418;51.210;6.976;2023-02-01T08:56:38;36.50;;;5.93;;
36383;SDS011;22418;51.210;6.976;2023-02-01T08:59:09;29.43;;;5.77;;
36383;SDS011;22418;51.210;6.976;2023-02-01T09:01:39;30.63;;;5.47;;
36383;SDS011;22418;51.210;6.976;2023-02-01T09:04:10;29.03;;;5.00;;
36383;SDS011;22418;51.210;6.976;2023-02-01T09:06:41;30.17;;;5.40;;
36383;SDS011;22418;51.210;6.976;2023-02-01T09:09:11;41.37;;;5.60;;
36383;SDS011;22418;51.210;6.976;2023-02-01T09:11:42;32.30;;;6.10;;
36383;SDS011;22418;51.210;6.976;2023-02-01T09:14:12;34.80;;;5.23;;
36383;SDS011;22418;51.210;6.976;2023-02-01T09:16:43;28.00;;;5.47;;
36383;SDS011;22418;51.210;6.976;2023-02-01T09:19:14;34.97;;;5.63;;
36383;SDS011;22418;51.210;6.976;2023-02-01T09:21:44;35.03;;;6.43;;
36383;SDS011;22418;51.210;6.976;2023-02-01T09:24:15;41.47;;;5.40;;
36383;SDS011;22418;51.210;6.976;2023-02-01T09:26:45;29.37;;;5.47;;
36383;SDS011;22418;51.210;6.976;2023-02-01T09:29:16;28.43;;;4.87;;
36383;SDS011;22418;51.210;6.976;2023-02-01T09:31:47;27.00;;;4.90;;
36383;SDS011;22418;51.210;6.976;2023-02-01T09:34:17;36.50;;;5.73;;
36383;SDS011;22418;51.210;6.976;2023-02-01T09:36:48;31.13;;;5.27;;
36383;SDS011;22418;51.210;6.976;2023-02-01T09:39:18;24.80;;;4.70;;
36383;SDS011;22418;51.210;6.976;2023-02-01T09:44:35;29.33;;;5.72;;
36383;SDS011;22418;51.210;6.976;2023-02-01T09:47:17;29.05;;;7.25;;
36383;SDS011;22418;51.210;6.976;2023-02-01T09:49:52;30.48;;;5.63;;
36383;SDS011;22418;51.210;6.976;2023-02-01T09:55:18;33.22;;;4.65;;
36383;SDS011;22418;51.210;6.976;2023-02-01T09:57:56;36.43;;;5.20;;
36383;SDS011;22418;51.210;6.976;2023-02-01T10:00:35;27.73;;;5.68;;
36383;SDS011;22418;51.210;6.976;2023-02-01T10:03:11;29.00;;;5.03;;
36383;SDS011;22418;51.210;6.976;2023-02-01T10:05:54;30.55;;;5.90;;
36383;SDS011;22418;51.210;6.976;2023-02-01T10:28:28;36.95;;;6.20;;
36383;SDS011;22418;51.210;6.976;2023-02-01T10:31:02;29.92;;;4.97;;
36383;SDS011;22418;51.210;6.976;2023-02-01T10:33:35;36.75;;;5.75;;
36383;SDS011;22418;51.210;6.976;2023-02-01T10:39:11;32.97;;;5.55;;
36383;SDS011;22418;51.210;6.976;2023-02-01T10:41:44;33.10;;;7.47;;
36383;SDS011;22418;51.210;6.976;2023-02-01T10:44:20;35.90;;;5.70;;
36383;SDS011;22418;51.210;6.976;2023-02-01T10:46:54;31.00;;;5.88;;
36383;SDS011;22418;51.210;6.976;2023-02-01T10:49:29;38.30;;;6.03;;
36383;SDS011;22418;51.210;6.976;2023-02-01T10:52:12;33.00;;;5.18;;
36383;SDS011;22418;51.210;6.976;2023-02-01T10:54:46;30.92;;;5.78;;
36383;SDS011;22418;51.210;6.976;2023-02-01T10:57:24;22.07;;;5.00;;
36383;SDS011;22418;51.210;6.976;2023-02-01T10:59:55;37.20;;;5.57;;
36383;SDS011;22418;51.210;6.976;2023-02-01T11:02:29;33.50;;;6.40;;
36383;SDS011;22418;51.210;6.976;2023-02-01T11:05:03;32.53;;;5.60;;
36383;SDS011;22418;51.210;6.976;2023-02-01T11:07:39;34.50;;;5.45;;
36383;SDS011;22418;51.210;6.976;2023-02-01T11:10:37;31.98;;;5.93;;
36383;SDS011;22418;51.210;6.976;2023-02-01T11:13:14;31.38;;;5.75;;
36383;SDS011;22418;51.210;6.976;2023-02-01T11:15:46;38.38;;;6.25;;
36383;SDS011;22418;51.210;6.976;2023-02-01T11:18:28;24.83;;;5.05;;
36383;SDS011;22418;51.210;6.976;2023-02-01T11:21:00;23.02;;;4.93;;
36383;SDS011;22418;51.210;6.976;2023-02-01T11:23:31;30.55;;;5.28;;
36383;SDS011;22418;51.210;6.976;2023-02-01T11:26:14;30.65;;;6.03;;
36383;SDS011;22418;51.210;6.976;2023-02-01T11:29:02;30.98;;;5.95;;
36383;SDS011;22418;51.210;6.976;2023-02-01T11:31:35;29.55;;;5.35;;
36383;SDS011;22418;51.210;6.976;2023-02-01T11:36:46;32.72;;;5.88;;
36383;SDS011;22418;51.210;6.976;2023-02-01T11:39:25;42.05;;;6.75;;
36383;SDS011;22418;51.210;6.976;2023-02-01T11:44:35;25.98;;;5.03;;
36383;SDS011;22418;51.210;6.976;2023-02-01T11:49:59;30.90;;;5.32;;
36383;SDS011;22418;51.210;6.976;2023-02-01T11:55:33;32.17;;;6.28;;
36383;SDS011;22418;51.210;6.976;2023-02-01T12:03:54;29.27;;;5.70;;
36383;SDS011;22418;51.210;6.976;2023-02-01T12:17:54;28.17;;;5.55;;
36383;SDS011;22418;51.210;6.976;2023-02-01T12:20:51;20.75;;;4.07;;
36383;SDS011;22418;51.210;6.976;2023-02-01T12:29:55;25.50;;;4.60;;
36383;SDS011;22418;51.210;6.976;2023-02-01T12:35:17;21.50;;;4.43;;
36383;SDS011;22418;51.210;6.976;2023-02-01T12:43:53;25.17;;;5.00;;
36383;SDS011;22418;51.210;6.976;2023-02-01T12:46:39;25.58;;;5.20;;
36383;SDS011;22418;51.210;6.976;2023-02-01T12:49:22;30.52;;;5.30;;
36383;SDS011;22418;51.210;6.976;2023-02-01T12:52:14;29.58;;;5.20;;
36383;SDS011;22418;51.210;6.976;2023-02-01T12:54:59;20.30;;;4.70;;
36383;SDS011;22418;51.210;6.976;2023-02-01T12:57:37;27.40;;;5.13;;
36383;SDS011;22418;51.210;6.976;2023-02-01T13:05:44;24.30;;;4.82;;
36383;SDS011;22418;51.210;6.976;2023-02-01T13:08:46;24.48;;;4.43;;
36383;SDS011;22418;51.210;6.976;2023-02-01T13:11:34;17.90;;;4.18;;
36383;SDS011;22418;51.210;6.976;2023-02-01T13:16:41;22.67;;;4.87;;
36383;SDS011;22418;51.210;6.976;2023-02-01T13:22:07;28.40;;;4.88;;
36383;SDS011;22418;51.210;6.976;2023-02-01T13:24:44;26.15;;;4.82;;
36383;SDS011;22418;51.210;6.976;2023-02-01T13:27:21;26.63;;;5.00;;
36383;SDS011;22418;51.210;6.976;2023-02-01T13:39:16;19.85;;;3.85;;
36383;SDS011;22418;51.210;6.976;2023-02-01T13:41:58;27.23;;;4.40;;
36383;SDS011;22418;51.210;6.976;2023-02-01T13:44:37;29.70;;;5.57;;
36383;SDS011;22418;51.210;6.976;2023-02-01T13:47:16;27.40;;;4.55;;
36383;SDS011;22418;51.210;6.976;2023-02-01T13:49:49;25.20;;;3.83;;
36383;SDS011;22418;51.210;6.976;2023-02-01T13:52:42;29.63;;;5.05;;
36383;SDS011;22418;51.210;6.976;2023-02-01T13:57:52;27.88;;;4.93;;
36383;SDS011;22418;51.210;6.976;2023-02-01T14:00:41;27.77;;;4.32;;
36383;SDS011;22418;51.210;6.976;2023-02-01T14:03:21;22.83;;;4.38;;
36383;SDS011;22418;51.210;6.976;2023-02-01T14:06:17;21.95;;;3.72;;
36383;SDS011;22418;51.210;6.976;2023-02-01T14:19:24;29.17;;;4.25;;
36383;SDS011;22418;51.210;6.976;2023-02-01T14:21:57;19.92;;;3.72;;
36383;SDS011;22418;51.210;6.976;2023-02-01T14:24:34;17.75;;;3.42;;
36383;SDS011;22418;51.210;6.976;2023-02-01T14:29:43;24.60;;;3.58;;
36383;SDS011;22418;51.210;6.976;2023-02-01T14:35:07;29.25;;;4.50;;
36383;SDS011;22418;51.210;6.976;2023-02-01T14:37:59;23.75;;;3.80;;
36383;SDS011;22418;51.210;6.976;2023-02-01T14:40:34;23.50;;;4.03;;
36383;SDS011;22418;51.210;6.976;2023-02-01T14:50:46;21.87;;;3.80;;
36383;SDS011;22418;51.210;6.976;2023-02-01T14:53:20;25.00;;;4.10;;
36383;SDS011;22418;51.210;6.976;2023-02-01T14:55:59;22.35;;;3.88;;
36383;SDS011;22418;51.210;6.976;2023-02-01T14:58:51;22.42;;;3.92;;
36383;SDS011;22418;51.210;6.976;2023-02-01T15:01:31;16.45;;;3.30;;
36383;SDS011;22418;51.210;6.976;2023-02-01T15:04:25;23.48;;;3.75;;
36383;SDS011;22418;51.210;6.976;2023-02-01T15:07:04;24.40;;;3.92;;
36383;SDS011;22418;51.210;6.976;2023-02-01T15:09:45;27.90;;;4.05;;
36383;SDS011;22418;51.210;6.976;2023-02-01T15:12:18;21.75;;;4.30;;
36383;SDS011;22418;51.210;6.976;2023-02-01T15:15:08;24.65;;;3.88;;
36383;SDS011;22418;51.210;6.976;2023-02-01T15:17:55;26.02;;;4.00;;
36383;SDS011;22418;51.210;6.976;2023-02-01T15:20:28;21.05;;;3.42;;
36383;SDS011;22418;51.210;6.976;2023-02-01T15:23:03;17.20;;;3.38;;
36383;SDS011;22418;51.210;6.976;2023-02-01T15:25:35;22.45;;;3.42;;
36383;SDS011;22418;51.210;6.976;2023-02-01T15:28:14;22.98;;;4.05;;
36383;SDS011;22418;51.210;6.976;2023-02-01T15:30:57;18.42;;;4.03;;
36383;SDS011;22418;51.210;6.976;2023-02-01T15:33:29;28.50;;;4.25;;
36383;SDS011;22418;51.210;6.976;2023-02-01T15:38:40;28.70;;;3.75;;
36383;SDS011;22418;51.210;6.976;2023-02-01T15:41:19;22.92;;;3.17;;
36383;SDS011;22418;51.210;6.976;2023-02-01T15:46:41;25.60;;;4.20;;
36383;SDS011;22418;51.210;6.976;2023-02-01T15:49:25;22.67;;;3.83;;
36383;SDS011;22418;51.210;6.976;2023-02-01T15:51:56;27.35;;;4.57;;
36383;SDS011;22418;51.210;6.976;2023-02-01T15:54:35;25.98;;;4.35;;
36383;SDS011;22418;51.210;6.976;2023-02-01T15:57:07;18.90;;;3.75;;
36383;SDS011;22418;51.210;6.976;2023-02-01T15:59:43;31.10;;;4.50;;
36383;SDS011;22418;51.210;6.976;2023-02-01T16:02:28;28.73;;;5.75;;
36383;SDS011;22418;51.210;6.976;2023-02-01T16:08:16;24.85;;;4.10;;
36383;SDS011;22418;51.210;6.976;2023-02-01T16:10:51;28.00;;;5.30;;
36383;SDS011;22418;51.210;6.976;2023-02-01T16:13:23;20.98;;;3.75;;
36383;SDS011;22418;51.210;6.976;2023-02-01T16:15:54;26.67;;;4.13;;
36383;SDS011;22418;51.210;6.976;2023-02-01T16:18:25;28.30;;;4.50;;
36383;SDS011;22418;51.210;6.976;2023-02-01T16:20:55;33.80;;;4.60;;
36383;SDS011;22418;51.210;6.976;2023-02-01T16:23:26;27.60;;;4.20;;
36383;SDS011;22418;51.210;6.976;2023-02-01T16:25:57;28.73;;;4.75;;
36383;SDS011;22418;51.210;6.976;2023-02-01T16:28:27;22.33;;;3.90;;
36383;SDS011;22418;51.210;6.976;2023-02-01T16:30:58;33.83;;;4.80;;
36383;SDS011;22418;51.210;6.976;2023-02-01T16:33:30;29.20;;;5.13;;
36383;SDS011;22418;51.210;6.976;2023-02-01T16:36:00;35.63;;;4.67;;
36383;SDS011;22418;51.210;6.976;2023-02-01T16:41:02;22.65;;;4.85;;
36383;SDS011;22418;51.210;6.976;2023-02-01T16:43:35;25.50;;;4.45;;
36383;SDS011;22418;51.210;6.976;2023-02-01T16:46:06;26.33;;;5.33;;
36383;SDS011;22418;51.210;6.976;2023-02-01T16:48:51;26.98;;;4.13;;
36383;SDS011;22418;51.210;6.976;2023-02-01T16:51:28;29.63;;;5.65;;
36383;SDS011;22418;51.210;6.976;2023-02-01T16:54:02;25.00;;;4.00;;
36383;SDS011;22418;51.210;6.976;2023-02-01T16:56:34;27.98;;;5.70;;
36383;SDS011;22418;51.210;6.976;2023-02-01T16:59:05;35.83;;;4.68;;
36383;SDS011;22418;51.210;6.976;2023-02-01T17:01:38;24.85;;;4.30;;
36383;SDS011;22418;51.210;6.976;2023-02-01T17:04:10;25.17;;;5.03;;
36383;SDS011;22418;51.210;6.976;2023-02-01T17:06:40;24.97;;;4.33;;
36383;SDS011;22418;51.210;6.976;2023-02-01T17:09:11;21.70;;;3.67;;
36383;SDS011;22418;51.210;6.976;2023-02-01T17:11:42;30.77;;;4.93;;
36383;SDS011;22418;51.210;6.976;2023-02-01T17:14:19;26.93;;;4.47;;
36383;SDS011;22418;51.210;6.976;2023-02-01T17:16:51;37.47;;;5.25;;
36383;SDS011;22418;51.210;6.976;2023-02-01T17:19:22;31.00;;;4.55;;
36383;SDS011;22418;51.210;6.976;2023-02-01T17:21:54;23.27;;;4.82;;
36383;SDS011;22418;51.210;6.976;2023-02-01T17:24:29;28.52;;;3.80;;
36383;SDS011;22418;51.210;6.976;2023-02-01T17:27:00;21.77;;;4.65;;
36383;SDS011;22418;51.210;6.976;2023-02-01T17:29:30;26.47;;;5.00;;
36383;SDS011;22418;51.210;6.976;2023-02-01T17:32:01;30.53;;;5.87;;
36383;SDS011;22418;51.210;6.976;2023-02-01T17:34:32;31.85;;;4.57;;
36383;SDS011;22418;51.210;6.976;2023-02-01T17:37:04;25.20;;;4.27;;
36383;SDS011;22418;51.210;6.976;2023-02-01T17:39:35;30.02;;;4.15;;
36383;SDS011;22418;51.210;6.976;2023-02-01T17:42:25;22.65;;;3.88;;
36383;SDS011;22418;51.210;6.976;2023-02-01T17:45:01;30.27;;;4.80;;
36383;SDS011;22418;51.210;6.976;2023-02-01T17:47:44;25.73;;;3.95;;
36383;SDS011;22418;51.210;6.976;2023-02-01T17:50:16;21.23;;;3.78;;
36383;SDS011;22418;51.210;6.976;2023-02-01T17:52:47;37.83;;;5.00;;
36383;SDS011;22418;51.210;6.976;2023-02-01T17:55:18;34.53;;;4.67;;
36383;SDS011;22418;51.210;6.976;2023-02-01T17:57:51;31.00;;;5.22;;
36383;SDS011;22418;51.210;6.976;2023-02-01T18:00:22;40.60;;;5.77;;
36383;SDS011;22418;51.210;6.976;2023-02-01T18:02:53;27.03;;;4.50;;
36383;SDS011;22418;51.210;6.976;2023-02-01T18:05:28;34.05;;;4.30;;